Time;durP1;ratioP1;P1;durP2;ratioP2;P2;SDS_P1;SDS_P2;PMS_P1;PMS_P2;Temp;Humidity;BMP_temperature;BMP_pressure;BME280_temperature;BME280_humidity;BME280_pressure;Samples;Min_cycle;Max_cycle;Signal;HPM_P1;HPM_P2
2023/08/25 00:00:40;;;;;;;6.63;4.15;;;;;;;16.40;100.00;99470.19;5138773;28;20051;-63
2023/08/25 00:03:06;;;;;;;13.30;4.05;;;;;;;16.46;100.00;99469.38;5139113;28;20138;-67
2023/08/25 00:05:36;;;;;;;6.15;4.15;;;;;;;16.39;100.00;99460.28;5139539;28;20142;-65
2023/08/25 00:08:03;;;;;;;8.02;4.40;;;;;;;16.37;100.00;99455.16;5138817;28;20441;-68
2023/08/25 00:10:29;;;;;;;21.58;4.57;;;;;;;16.35;100.00;99440.13;5139244;28;20153;-65
2023/08/25 00:12:55;;;;;;;11.15;4.55;;;;;;;16.38;100.00;99431.81;5138869;28;20130;-67
2023/08/25 00:15:21;;;;;;;8.88;4.40;;;;;;;16.28;100.00;99429.84;5139215;28;20055;-68
2023/08/25 00:17:47;;;;;;;5.82;4.43;;;;;;;16.33;100.00;99443.31;5138762;28;20138;-65
2023/08/25 00:20:13;;;;;;;6.65;3.85;;;;;;;16.21;100.00;99441.72;5139203;28;20082;-63
2023/08/25 00:22:40;;;;;;;10.05;5.22;;;;;;;16.22;100.00;99436.97;5138499;28;20107;-67
2023/08/25 00:25:08;;;;;;;13.02;4.25;;;;;;;16.22;100.00;99436.97;5138549;28;20413;-68
2023/08/25 00:27:34;;;;;;;12.63;6.18;;;;;;;16.21;100.00;99432.63;5138546;28;20101;-65
2023/08/25 00:30:01;;;;;;;7.45;3.38;;;;;;;16.21;100.00;99430.66;5138699;28;20050;-67
2023/08/25 00:32:27;;;;;;;7.45;4.70;;;;;;;16.22;100.00;99436.97;5138595;28;20143;-67
2023/08/25 00:34:53;;;;;;;11.27;4.32;;;;;;;16.15;100.00;99443.28;5138771;28;20051;-65
2023/08/25 00:37:19;;;;;;;6.88;4.70;;;;;;;16.13;100.00;99431.84;5138426;28;20098;-64
2023/08/25 00:39:46;;;;;;;4.68;3.72;;;;;;;16.21;100.00;99443.69;5138247;28;20091;-64
2023/08/25 00:42:12;;;;;;;7.75;5.22;;;;;;;16.16;100.00;99444.06;5138633;28;20146;-65
2023/08/25 00:44:38;;;;;;;8.40;3.72;;;;;;;15.94;100.00;99433.03;5138335;28;20097;-64
2023/08/25 00:47:05;;;;;;;8.38;3.88;;;;;;;16.04;100.00;99403.03;5138614;28;20087;-63
2023/08/25 00:49:31;;;;;;;9.68;3.13;;;;;;;16.11;100.00;99422.38;5138210;28;20051;-65
2023/08/25 00:51:58;;;;;;;6.53;3.70;;;;;;;16.07;100.00;99425.13;5138615;28;20051;-68
2023/08/25 00:54:27;;;;;;;9.25;3.80;;;;;;;16.17;100.00;99435.41;5138353;28;20051;-68
2023/08/25 00:56:53;;;;;;;11.27;4.07;;;;;;;16.18;100.00;99436.19;5138254;28;20063;-67
2023/08/25 00:59:21;;;;;;;5.32;3.47;;;;;;;16.20;100.00;99453.19;5138391;28;20397;-67
2023/08/25 01:01:47;;;;;;;10.63;3.47;;;;;;;16.14;100.00;99463.84;5137969;28;20328;-67
2023/08/25 01:04:13;;;;;;;8.35;4.50;;;;;;;16.09;100.00;99461.47;5138582;28;20051;-65
2023/08/25 01:06:40;;;;;;;7.20;3.72;;;;;;;16.11;100.00;99461.09;5137958;28;20203;-68
2023/08/25 01:09:07;;;;;;;8.25;3.35;;;;;;;16.08;100.00;99464.63;5138145;28;20086;-65
2023/08/25 01:11:40;;;;;;;7.00;3.33;;;;;;;16.00;100.00;99464.63;5137703;27;20541;-66
2023/08/25 01:14:14;;;;;;;3.63;3.15;;;;;;;16.01;100.00;99454.38;5138552;28;20057;-66
2023/08/25 01:16:45;;;;;;;4.80;3.25;;;;;;;16.02;100.00;99453.16;5138190;28;20065;-67
2023/08/25 01:19:37;;;;;;;4.88;3.30;;;;;;;15.90;100.00;99459.91;5137904;28;20142;-66
2023/08/25 01:22:06;;;;;;;5.13;3.10;;;;;;;15.72;100.00;99445.25;5138074;28;20108;-64
2023/08/25 01:24:35;;;;;;;7.07;3.47;;;;;;;15.72;100.00;99440.50;5137589;28;20051;-67
2023/08/25 01:27:04;;;;;;;4.88;3.20;;;;;;;15.59;100.00;99430.97;5137944;28;20058;-64
2023/08/25 01:29:30;;;;;;;7.13;3.60;;;;;;;15.66;100.00;99410.84;5137528;28;20146;-64
2023/08/25 01:31:56;;;;;;;11.65;3.70;;;;;;;15.60;100.00;99406.91;5138000;28;20050;-66
2023/08/25 01:34:24;;;;;;;8.70;3.88;;;;;;;15.60;100.00;99393.88;5137535;28;20047;-68
2023/08/25 01:36:57;;;;;;;7.35;3.40;;;;;;;15.57;100.00;99389.16;5137945;28;20136;-68
2023/08/25 01:39:25;;;;;;;7.88;3.75;;;;;;;15.53;100.00;99394.66;5137663;28;20051;-64
2023/08/25 01:41:56;;;;;;;6.97;3.40;;;;;;;15.49;100.00;99395.81;5137370;28;20054;-66
2023/08/25 01:44:26;;;;;;;8.00;3.53;;;;;;;15.46;100.00;99389.13;5137914;28;20123;-64
2023/08/25 01:46:58;;;;;;;4.57;3.63;;;;;;;15.43;100.00;99389.91;5137206;28;20476;-64
2023/08/25 01:49:24;;;;;;;8.50;3.50;;;;;;;15.41;100.00;99389.50;5137716;28;20061;-65
2023/08/25 01:51:51;;;;;;;9.02;4.80;;;;;;;15.30;100.00;99383.97;5137312;28;20043;-65
2023/08/25 01:54:17;;;;;;;6.07;3.35;;;;;;;15.34;100.00;99361.88;5137709;28;20142;-67
2023/08/25 01:56:43;;;;;;;5.07;3.63;;;;;;;15.25;100.00;99358.69;5137249;28;20108;-65
2023/08/25 01:59:09;;;;;;;4.25;3.60;;;;;;;15.32;100.00;99347.66;5137647;28;20082;-66
2023/08/25 02:01:35;;;;;;;10.95;3.58;;;;;;;15.30;100.00;99359.09;5137162;28;20057;-65
2023/08/25 02:04:01;;;;;;;8.52;4.05;;;;;;;15.25;100.00;99362.25;5137531;28;20139;-65
2023/08/25 02:06:28;;;;;;;4.18;3.80;;;;;;;15.29;100.00;99357.53;5137339;28;20104;-63
2023/08/25 02:08:53;;;;;;;7.30;3.83;;;;;;;15.19;100.00;99354.72;5137090;28;20055;-65
2023/08/25 02:11:19;;;;;;;5.00;3.70;;;;;;;15.16;100.00;99355.50;5137330;28;20482;-64
2023/08/25 02:13:45;;;;;;;14.73;5.03;;;;;;;15.10;100.00;99343.28;5136896;28;20051;-63
2023/08/25 02:16:12;;;;;;;11.90;4.25;;;;;;;15.13;100.00;99326.72;5137313;28;20043;-64
2023/08/25 02:18:38;;;;;;;7.57;4.40;;;;;;;15.09;100.00;99342.47;5136901;28;20405;-65
2023/08/25 02:21:04;;;;;;;6.75;3.60;;;;;;;15.05;100.00;99353.50;5137325;28;20129;-67
2023/08/25 02:23:30;;;;;;;9.48;5.40;;;;;;;14.95;100.00;99359.78;5139688;28;20507;-66
2023/08/25 02:25:56;;;;;;;10.30;3.97;;;;;;;14.97;100.00;99340.09;5141242;28;20058;-65
2023/08/25 02:28:22;;;;;;;6.32;3.60;;;;;;;14.87;100.00;99319.56;5140452;28;20090;-65
2023/08/25 02:30:48;;;;;;;6.68;3.58;;;;;;;14.96;100.00;99314.47;5140905;28;20095;-63
2023/08/25 02:33:14;;;;;;;6.15;4.05;;;;;;;14.96;100.00;99324.69;5140314;28;20405;-64
2023/08/25 02:35:40;;;;;;;7.80;4.30;;;;;;;14.91;100.00;99317.59;5140346;28;20091;-68
2023/08/25 02:38:08;;;;;;;8.63;4.18;;;;;;;14.91;100.00;99319.56;5140617;28;20062;-67
2023/08/25 02:40:34;;;;;;;6.75;4.40;;;;;;;14.85;100.00;99330.19;5140310;28;20134;-67
2023/08/25 02:43:02;;;;;;;6.60;3.95;;;;;;;14.79;100.00;99345.53;5140573;28;20079;-64
2023/08/25 02:45:29;;;;;;;4.75;4.10;;;;;;;14.81;100.00;99341.22;5140372;28;20111;-64
2023/08/25 02:47:55;;;;;;;6.53;4.30;;;;;;;14.67;100.00;99343.16;5140473;28;20055;-68
2023/08/25 02:50:21;;;;;;;7.45;4.43;;;;;;;14.75;100.00;99317.16;5140223;28;20119;-67
2023/08/25 02:52:48;;;;;;;4.28;3.65;;;;;;;14.59;100.00;99323.81;5140548;28;20141;-64
2023/08/25 02:55:17;;;;;;;7.03;4.55;;;;;;;14.70;100.00;99299.00;5140148;28;20043;-66
2023/08/25 02:57:44;;;;;;;12.02;4.38;;;;;;;14.66;100.00;99295.47;5140445;28;20133;-65
2023/08/25 03:00:13;;;;;;;8.95;4.03;;;;;;;14.74;100.00;99286.00;5140031;28;20051;-65
2023/08/25 03:02:39;;;;;;;5.57;3.63;;;;;;;14.78;100.00;99297.84;5139886;28;20142;-67
2023/08/25 03:05:06;;;;;;;7.45;4.57;;;;;;;14.76;100.00;99318.72;5139961;28;20066;-67
2023/08/25 03:07:32;;;;;;;7.85;4.55;;;;;;;14.69;100.00;99327.75;5139910;28;20209;-67
2023/08/25 03:09:59;;;;;;;7.55;4.03;;;;;;;14.75;100.00;99312.41;5140412;28;20062;-67
2023/08/25 03:12:26;;;;;;;6.20;4.13;;;;;;;14.60;100.00;99280.44;5139974;28;20329;-67
2023/08/25 03:14:52;;;;;;;6.63;4.22;;;;;;;14.63;100.00;99263.13;5139853;28;20051;-64
2023/08/25 03:17:18;;;;;;;5.85;4.07;;;;;;;14.79;100.00;99258.03;5139822;28;20199;-66
2023/08/25 03:19:44;;;;;;;8.52;4.32;;;;;;;14.86;100.00;99268.31;5140076;28;20070;-68
2023/08/25 03:22:10;;;;;;;8.68;4.10;;;;;;;14.86;100.00;99279.34;5139598;28;20139;-68
2023/08/25 03:24:36;;;;;;;9.52;6.20;;;;;;;14.84;100.00;99287.22;5139823;28;20047;-68
2023/08/25 03:27:03;;;;;;;8.90;4.30;;;;;;;14.85;100.00;99296.28;5139450;28;20057;-65
2023/08/25 03:29:31;;;;;;;6.68;3.78;;;;;;;14.87;100.00;99313.25;5140048;28;20051;-66
2023/08/25 03:31:57;;;;;;;6.40;3.47;;;;;;;14.78;100.00;99344.75;5139791;28;20396;-63
2023/08/25 03:34:23;;;;;;;4.40;3.58;;;;;;;14.73;100.00;99349.88;5138013;27;20047;-64
2023/08/25 03:36:49;;;;;;;7.18;3.83;;;;;;;14.77;100.00;99364.47;5139713;28;20047;-64
2023/08/25 03:39:15;;;;;;;4.32;3.58;;;;;;;14.76;100.00;99365.63;5139429;28;20071;-66
2023/08/25 03:41:41;;;;;;;4.10;3.40;;;;;;;14.89;100.00;99363.31;5139485;28;20050;-66
2023/08/25 03:44:07;;;;;;;6.22;3.58;;;;;;;15.30;100.00;99361.88;5139483;28;20047;-63
2023/08/25 03:46:33;;;;;;;5.55;3.60;;;;;;;15.80;100.00;99410.91;5139645;28;20138;-63
2023/08/25 03:49:00;;;;;;;4.93;2.97;;;;;;;16.22;100.00;99473.72;5139047;28;20055;-64
2023/08/25 03:51:26;;;;;;;3.72;3.17;;;;;;;16.38;100.00;99511.28;5139535;28;20068;-67
2023/08/25 03:53:52;;;;;;;4.72;3.13;;;;;;;16.90;100.00;99517.19;5139133;28;20134;-63
2023/08/25 03:56:18;;;;;;;7.95;3.10;;;;;;;17.14;100.00;99460.13;5139533;28;20072;-66
2023/08/25 03:58:45;;;;;;;6.28;3.35;;;;;;;17.56;100.00;99328.03;5138996;28;20062;-66
2023/08/25 04:01:11;;;;;;;5.15;3.45;;;;;;;17.78;100.00;99154.78;5138955;28;20444;-64
2023/08/25 04:03:37;;;;;;;4.38;2.70;;;;;;;18.05;100.00;98980.09;5139286;28;20328;-64
2023/08/25 04:06:03;;;;;;;4.88;3.17;;;;;;;18.25;100.00;98788.72;5139051;28;20078;-63
2023/08/25 04:08:29;;;;;;;9.93;2.70;;;;;;;18.47;100.00;98644.00;5138889;28;20432;-68
2023/08/25 04:10:55;;;;;;;5.95;2.80;;;;;;;18.83;100.00;98546.00;5138965;28;20103;-68
2023/08/25 04:13:21;;;;;;;4.57;3.55;;;;;;;19.12;100.00;98396.78;5139220;28;20111;-67
2023/08/25 04:15:54;;;;;;;3.47;2.70;;;;;;;19.21;100.00;98341.34;5138936;28;20393;-64
2023/08/25 04:18:21;;;;;;;3.53;3.07;;;;;;;19.40;100.00;98230.44;5139194;28;20050;-66
2023/08/25 04:20:47;;;;;;;5.65;3.05;;;;;;;19.59;100.00;98186.88;5138730;28;20051;-66
2023/08/25 04:23:13;;;;;;;6.40;3.00;;;;;;;19.88;100.00;98134.66;5138955;28;20391;-66
2023/08/25 04:25:39;;;;;;;7.82;2.58;;;;;;;19.98;100.00;98107.66;5138516;28;20093;-65
2023/08/25 04:28:05;;;;;;;7.13;2.85;;;;;;;20.30;100.00;98069.50;5138970;28;20047;-64
2023/08/25 04:30:31;;;;;;;8.95;2.95;;;;;;;20.62;100.00;98051.56;5138771;28;20150;-64
2023/08/25 04:32:57;;;;;;;4.10;2.47;;;;;;;20.84;100.00;98040.31;5138718;28;20054;-64
2023/08/25 04:35:24;;;;;;;3.90;2.70;;;;;;;21.07;100.00;98031.38;5138732;28;20057;-62
2023/08/25 04:37:50;;;;;;;5.03;2.53;;;;;;;21.41;100.00;98040.69;5138751;28;20070;-62
2023/08/25 04:40:17;;;;;;;5.95;2.63;;;;;;;21.67;100.00;98060.66;5138636;28;20051;-62
2023/08/25 04:42:43;;;;;;;3.08;2.20;;;;;;;21.98;100.00;98057.66;5138403;28;20054;-62
2023/08/25 04:45:10;;;;;;;6.97;2.58;;;;;;;22.15;100.00;98115.91;5138146;27;20439;-67
2023/08/25 04:47:36;;;;;;;5.40;2.50;;;;;;;22.21;100.00;98095.28;5138189;28;20051;-63
2023/08/25 04:50:03;;;;;;;6.55;2.53;;;;;;;22.48;100.00;98144.69;5138265;28;20149;-67
2023/08/25 04:52:30;;;;;;;3.10;2.17;;;;;;;22.69;100.00;98164.47;5138127;28;20055;-67
2023/08/25 04:54:56;;;;;;;8.10;1.95;;;;;;;22.93;100.00;98192.53;5138244;28;20134;-67
2023/08/25 04:57:22;;;;;;;5.90;2.53;;;;;;;22.96;100.00;98236.31;5137896;28;20542;-66
2023/08/25 04:59:48;;;;;;;2.60;2.00;;;;;;;23.52;100.00;98276.75;5138144;28;20344;-63
2023/08/25 05:02:15;;;;;;;2.90;1.88;;;;;;;23.82;100.00;98346.88;5138047;28;20057;-67
2023/08/25 05:04:41;;;;;;;2.75;2.03;;;;;;;23.99;100.00;98392.03;5137694;28;20489;-67
2023/08/25 05:07:07;;;;;;;4.97;2.00;;;;;;;24.30;100.00;98405.72;5137917;28;20332;-67
2023/08/25 05:09:34;;;;;;;6.75;2.35;;;;;;;24.77;100.00;98497.41;5137846;28;20055;-66
2023/08/25 05:12:00;;;;;;;6.47;1.73;;;;;;;24.71;100.00;98532.97;5138168;28;20047;-66
2023/08/25 05:14:26;;;;;;;3.75;2.47;;;;;;;24.72;100.00;98514.88;5137722;28;20405;-67
2023/08/25 05:16:52;;;;;;;5.35;2.13;;;;;;;24.40;100.00;98525.66;5138148;28;20061;-67
2023/08/25 05:19:18;;;;;;;4.75;2.20;;;;;;;24.01;100.00;98479.13;5137628;28;20145;-66
2023/08/25 05:21:44;;;;;;;3.33;1.88;;;;;;;24.21;100.00;98479.34;5138002;28;20051;-65
2023/08/25 05:24:21;;;;;;;8.77;1.67;;;;;;;24.70;100.00;98520.22;5137517;28;20059;-67
2023/08/25 05:26:51;;;;;;;4.93;2.17;;;;;;;24.94;100.00;98539.06;5138114;28;20134;-66
2023/08/25 05:29:17;;;;;;;1.60;1.50;;;;;;;24.85;100.00;98551.09;5137922;28;20058;-68
2023/08/25 05:31:43;;;;;;;2.78;1.65;;;;;;;24.57;100.00;98567.31;5137479;28;20057;-63
2023/08/25 05:34:09;;;;;;;2.78;1.95;;;;;;;24.09;100.00;98500.72;5137749;28;20347;-63
2023/08/25 05:36:35;;;;;;;2.70;1.80;;;;;;;24.12;100.00;98477.34;5137292;28;20058;-66
2023/08/25 05:39:01;;;;;;;9.75;1.73;;;;;;;23.84;100.00;98473.91;5137685;28;20078;-66
2023/08/25 05:41:27;;;;;;;2.65;1.73;;;;;;;24.04;100.00;98467.75;5137284;28;20138;-62
2023/08/25 05:43:54;;;;;;;4.05;2.10;;;;;;;23.84;100.00;98495.53;5137695;28;20107;-67
2023/08/25 05:46:20;;;;;;;4.40;1.80;;;;;;;24.22;100.00;98466.13;5137219;28;20051;-67
2023/08/25 05:48:46;;;;;;;6.25;2.47;;;;;;;24.16;100.00;98480.78;5137540;28;20057;-66
2023/08/25 05:51:12;;;;;;;2.17;1.95;;;;;;;23.92;100.00;98457.53;5137115;28;20078;-64
2023/08/25 05:53:38;;;;;;;3.95;1.70;;;;;;;23.68;100.00;98418.31;5137846;28;20043;-63
2023/08/25 05:56:04;;;;;;;4.50;1.70;;;;;;;23.65;100.00;98380.81;5136755;27;20597;-62
2023/08/25 05:58:30;;;;;;;2.45;1.77;;;;;;;23.44;100.00;98348.28;5136568;28;20389;-64
2023/08/25 06:00:58;;;;;;;4.68;2.20;;;;;;;23.09;100.00;98336.72;5137086;28;20057;-67
2023/08/25 06:03:24;;;;;;;3.00;2.10;;;;;;;22.75;100.00;98288.34;5137079;28;20043;-63
2023/08/25 06:05:52;;;;;;;4.47;1.80;;;;;;;23.16;100.00;98272.13;5137024;28;20392;-62
2023/08/25 06:08:18;;;;;;;2.58;1.90;;;;;;;23.32;100.00;98293.31;5136674;28;20482;-65
2023/08/25 06:10:44;;;;;;;2.55;1.95;;;;;;;23.93;100.00;98358.34;5137237;28;20048;-64
2023/08/25 06:13:10;;;;;;;4.05;1.60;;;;;;;24.53;100.00;98429.41;5136896;28;20416;-62
2023/08/25 06:15:36;;;;;;;3.42;1.48;;;;;;;25.33;100.00;98523.81;5137078;28;20432;-63
2023/08/25 06:18:03;;;;;;;5.47;2.47;;;;;;;25.48;100.00;98579.94;5136648;28;20051;-67
2023/08/25 06:20:30;;;;;;;2.47;2.00;;;;;;;26.28;100.00;98619.44;5137225;28;20061;-64
2023/08/25 06:22:56;;;;;;;7.53;2.30;;;;;;;26.26;100.00;98645.22;5136646;28;20135;-65
2023/08/25 06:25:22;;;;;;;6.32;2.08;;;;;;;26.05;100.00;98649.19;5136772;28;20099;-65
2023/08/25 06:27:48;;;;;;;7.32;1.73;;;;;;;26.49;100.00;98668.91;5136720;28;20051;-67
2023/08/25 06:30:16;;;;;;;4.18;1.60;;;;;;;26.94;100.00;98711.00;5136650;28;20051;-66
2023/08/25 06:32:42;;;;;;;5.28;1.80;;;;;;;27.25;100.00;98716.09;5136944;28;20063;-65
2023/08/25 06:35:10;;;;;;;9.48;2.03;;;;;;;26.95;100.00;98712.53;5136838;28;20137;-64
2023/08/25 06:37:35;;;;;;;4.70;1.63;;;;;;;26.57;100.00;98688.94;5136644;28;20051;-64
2023/08/25 06:40:03;;;;;;;2.95;1.60;;;;;;;26.11;100.00;98689.38;5136492;28;20063;-61
2023/08/25 06:42:29;;;;;;;4.35;1.85;;;;;;;26.30;100.00;98667.50;5137061;28;20055;-68
2023/08/25 06:44:55;;;;;;;7.13;1.83;;;;;;;27.15;100.00;98684.47;5136465;28;20078;-67
2023/08/25 06:47:21;;;;;;;5.50;1.55;;;;;;;27.26;100.00;98711.22;5136666;28;20058;-64
2023/08/25 06:49:47;;;;;;;4.53;1.52;;;;;;;27.90;100.00;98727.97;5136025;28;20361;-66
2023/08/25 06:52:14;;;;;;;4.88;1.50;;;;;;;28.15;100.00;98722.88;5136332;28;20142;-67
2023/08/25 06:54:40;;;;;;;2.17;1.30;;;;;;;28.77;100.00;98748.88;5136089;28;20464;-66
2023/08/25 06:57:07;;;;;;;5.57;1.70;;;;;;;28.75;100.00;98752.19;5136028;28;20070;-66
2023/08/25 06:59:33;;;;;;;4.53;1.85;;;;;;;28.54;100.00;98754.31;5136385;28;20379;-63
2023/08/25 07:01:59;;;;;;;5.28;1.63;;;;;;;28.99;100.00;98749.06;5136265;28;20043;-62
2023/08/25 07:04:25;;;;;;;3.38;1.55;;;;;;;28.91;100.00;98762.06;5136565;28;20079;-63
2023/08/25 07:06:51;;;;;;;6.72;1.60;;;;;;;28.86;100.00;98768.44;5136136;28;20058;-67
2023/08/25 07:09:17;;;;;;;3.88;1.75;;;;;;;29.04;100.00;98770.94;5138780;27;20079;-67
2023/08/25 07:11:43;;;;;;;6.65;1.70;;;;;;;28.95;100.00;98775.94;5139534;28;20134;-67
2023/08/25 07:14:09;;;;;;;4.22;1.38;;;;;;;28.71;98.51;98782.66;5140006;28;20103;-64
2023/08/25 07:16:35;;;;;;;5.13;1.52;;;;;;;28.74;98.92;98780.91;5140005;28;20047;-62
2023/08/25 07:19:01;;;;;;;5.72;1.70;;;;;;;28.68;97.54;98775.19;5139842;28;20058;-65
2023/08/25 07:21:27;;;;;;;6.32;1.67;;;;;;;28.91;98.83;98767.72;5139396;28;20142;-67
2023/08/25 07:23:55;;;;;;;7.82;1.40;;;;;;;29.10;100.00;98761.75;5139247;28;20051;-66
2023/08/25 07:26:22;;;;;;;2.47;1.40;;;;;;;29.08;99.45;98770.69;5139454;28;20062;-64
2023/08/25 07:28:48;;;;;;;4.32;1.10;;;;;;;28.35;100.00;98764.34;5139148;28;20055;-63
2023/08/25 07:31:14;;;;;;;4.60;1.20;;;;;;;29.22;99.11;98754.88;5139357;28;20101;-67
2023/08/25 07:33:41;;;;;;;4.47;1.42;;;;;;;29.34;97.45;98767.81;5138999;28;20396;-66
2023/08/25 07:36:07;;;;;;;8.10;1.30;;;;;;;28.73;100.00;98768.09;5139368;28;20051;-62
2023/08/25 07:38:33;;;;;;;1.25;1.15;;;;;;;28.24;100.00;98756.53;5139369;28;20081;-63
2023/08/25 07:40:59;;;;;;;8.05;1.30;;;;;;;28.50;100.00;98761.44;5139748;28;20052;-67
2023/08/25 07:43:25;;;;;;;4.18;1.45;;;;;;;28.80;100.00;98761.97;5138954;28;20510;-64
2023/08/25 07:45:53;;;;;;;6.00;1.52;;;;;;;28.90;97.06;98771.03;5138900;28;20071;-67
2023/08/25 07:48:19;;;;;;;2.80;1.10;;;;;;;29.03;97.50;98760.16;5138708;28;20047;-66
2023/08/25 07:50:44;;;;;;;3.40;1.42;;;;;;;29.44;94.68;98763.50;5139130;28;20076;-66
2023/08/25 07:53:13;;;;;;;4.38;1.40;;;;;;;29.30;96.97;98755.97;5139061;28;20130;-66
2023/08/25 07:55:39;;;;;;;7.13;1.52;;;;;;;29.13;96.09;98755.09;5138941;28;20069;-64
2023/08/25 07:58:05;;;;;;;8.55;1.75;;;;;;;29.22;92.16;98760.53;5139166;28;20341;-68
2023/08/25 08:00:32;;;;;;;4.60;1.42;;;;;;;29.56;92.82;98764.34;5138743;28;20549;-67
2023/08/25 08:02:58;;;;;;;4.13;1.40;;;;;;;29.57;87.77;98760.25;5139163;28;20054;-62
2023/08/25 08:05:26;;;;;;;2.13;1.20;;;;;;;29.56;88.12;98767.19;5138634;28;20144;-66
2023/08/25 08:07:52;;;;;;;3.13;1.23;;;;;;;29.95;86.44;98766.59;5138878;28;20381;-64
2023/08/25 08:10:18;;;;;;;2.28;1.30;;;;;;;30.43;83.51;98777.09;5138717;28;20119;-66
2023/08/25 08:12:46;;;;;;;2.58;1.60;;;;;;;30.38;81.55;98772.16;5139383;28;20051;-66
2023/08/25 08:15:13;;;;;;;2.28;1.40;;;;;;;30.65;85.05;98771.44;5138508;28;20058;-65
2023/08/25 08:17:40;;;;;;;5.90;1.55;;;;;;;30.28;83.63;98768.03;5138953;28;20150;-63
2023/08/25 08:20:12;;;;;;;4.18;1.95;;;;;;;30.16;79.66;98772.88;5137841;27;20062;-64
2023/08/25 08:22:38;;;;;;;4.00;1.80;;;;;;;29.82;79.20;98778.38;5138389;28;20424;-62
2023/08/25 08:25:06;;;;;;;2.05;1.25;;;;;;;28.65;87.53;98769.78;5138610;28;20054;-66
2023/08/25 08:27:35;;;;;;;3.45;1.38;;;;;;;28.61;88.09;98770.78;5138427;28;20065;-64
2023/08/25 08:30:02;;;;;;;2.75;1.30;;;;;;;29.18;80.66;98771.28;5138522;28;20187;-65
2023/08/25 08:32:28;;;;;;;5.05;1.20;;;;;;;29.05;77.42;98778.09;5138301;28;20146;-62
2023/08/25 08:34:54;;;;;;;2.20;1.23;;;;;;;28.64;86.02;98762.59;5138823;28;20043;-63
2023/08/25 08:37:20;;;;;;;7.57;1.58;;;;;;;29.41;83.21;98778.63;5138193;28;20441;-63
2023/08/25 08:39:46;;;;;;;4.55;1.50;;;;;;;29.51;82.15;98782.03;5138489;28;20061;-65
2023/08/25 08:42:14;;;;;;;5.57;1.33;;;;;;;29.83;82.01;98790.47;5138203;28;20051;-65
2023/08/25 08:44:45;;;;;;;4.97;2.15;;;;;;;29.74;80.13;98789.38;5138533;28;20051;-64
2023/08/25 08:47:11;;;;;;;3.58;1.73;;;;;;;28.90;90.07;98785.16;5138398;28;20043;-65
2023/08/25 08:49:38;;;;;;;3.08;1.80;;;;;;;29.24;85.60;98784.16;5138097;28;20055;-62
2023/08/25 08:52:07;;;;;;;13.23;1.70;;;;;;;29.50;86.24;98783.31;5138326;28;20074;-64
2023/08/25 08:54:35;;;;;;;6.13;2.00;;;;;;;30.42;79.78;98800.97;5138074;28;20130;-65
2023/08/25 08:57:01;;;;;;;7.63;1.50;;;;;;;30.49;78.68;98797.66;5138345;28;20089;-61
2023/08/25 08:59:27;;;;;;;5.90;1.88;;;;;;;29.62;82.75;98789.81;5138084;28;20054;-64
2023/08/25 09:01:53;;;;;;;6.93;1.40;;;;;;;28.93;86.07;98787.75;5138390;28;20047;-61
2023/08/25 09:04:20;;;;;;;6.72;1.48;;;;;;;28.38;89.63;98778.22;5137857;28;20134;-63
2023/08/25 09:06:49;;;;;;;4.82;1.50;;;;;;;27.82;98.56;98777.53;5138150;28;20187;-66
2023/08/25 09:09:19;;;;;;;6.25;1.60;;;;;;;27.12;100.00;98766.25;5137649;28;20043;-64
2023/08/25 09:11:45;;;;;;;3.03;1.58;;;;;;;27.11;100.00;98765.47;5138004;28;20198;-61
2023/08/25 09:14:13;;;;;;;2.75;1.67;;;;;;;25.89;100.00;98756.34;5138017;28;20079;-61
2023/08/25 09:16:39;;;;;;;6.22;1.77;;;;;;;25.84;100.00;98728.94;5137967;28;20051;-61
2023/08/25 09:19:05;;;;;;;7.72;1.90;;;;;;;26.12;100.00;98730.25;5137970;28;20374;-64
2023/08/25 09:21:32;;;;;;;6.60;2.22;;;;;;;26.33;100.00;98759.28;5137581;28;20114;-63
2023/08/25 09:23:59;;;;;;;2.85;1.60;;;;;;;26.39;100.00;98754.53;5137992;28;20146;-61
2023/08/25 09:26:29;;;;;;;4.85;1.80;;;;;;;25.54;100.00;98748.44;5137547;28;20346;-64
2023/08/25 09:28:57;;;;;;;3.10;2.10;;;;;;;26.64;100.00;98747.59;5138115;28;20076;-65
2023/08/25 09:31:24;;;;;;;4.05;1.50;;;;;;;26.58;100.00;98757.19;5137470;27;20188;-63
2023/08/25 09:33:52;;;;;;;5.35;1.70;;;;;;;27.07;100.00;98755.69;5137865;28;20097;-64
2023/08/25 09:36:18;;;;;;;2.35;1.40;;;;;;;27.58;100.00;98760.81;5137166;28;20404;-64
2023/08/25 09:38:46;;;;;;;3.78;1.80;;;;;;;27.94;100.00;98767.19;5137443;28;20084;-63
2023/08/25 09:41:12;;;;;;;3.10;2.25;;;;;;;27.38;100.00;98747.50;5137465;28;20051;-61
2023/08/25 09:43:39;;;;;;;3.42;1.70;;;;;;;27.75;100.00;98763.09;5137425;28;20366;-63
2023/08/25 09:46:07;;;;;;;3.88;1.48;;;;;;;28.07;97.97;98770.44;5137223;28;20462;-61
2023/08/25 09:48:33;;;;;;;5.38;1.95;;;;;;;28.30;100.00;98762.25;5137150;28;20051;-62
2023/08/25 09:50:59;;;;;;;3.60;1.52;;;;;;;28.86;97.44;98774.09;5137531;28;20049;-63
2023/08/25 09:53:31;;;;;;;3.25;1.92;;;;;;;29.46;89.01;98786.38;5137241;28;20187;-65
2023/08/25 09:56:01;;;;;;;4.55;1.50;;;;;;;29.37;84.01;98791.44;5137412;28;20112;-63
2023/08/25 09:58:28;;;;;;;3.05;1.80;;;;;;;28.38;91.53;98788.72;5136930;28;20054;-61
2023/08/25 10:00:55;;;;;;;6.20;1.70;;;;;;;27.89;96.17;98765.88;5137450;28;20111;-66
2023/08/25 10:03:22;;;;;;;8.60;1.70;;;;;;;27.13;100.00;98770.66;5136816;28;20138;-64
2023/08/25 10:05:48;;;;;;;2.45;1.75;;;;;;;27.10;100.00;98746.28;5137120;28;20115;-65
2023/08/25 10:08:16;;;;;;;3.15;1.70;;;;;;;27.22;100.00;98759.28;5136701;28;20089;-61
2023/08/25 10:10:44;;;;;;;2.80;1.85;;;;;;;27.07;100.00;98750.84;5136778;28;20054;-65
2023/08/25 10:13:14;;;;;;;4.15;1.92;;;;;;;26.76;100.00;98751.38;5136885;28;20063;-61
2023/08/25 10:15:42;;;;;;;2.97;1.60;;;;;;;26.29;100.00;98742.59;5136918;28;20055;-62
2023/08/25 10:18:09;;;;;;;3.88;1.80;;;;;;;26.61;100.00;98756.22;5136927;28;20051;-62
2023/08/25 10:20:36;;;;;;;6.07;1.92;;;;;;;26.44;100.00;98750.25;5136768;28;20159;-64
2023/08/25 10:23:04;;;;;;;3.00;1.80;;;;;;;26.50;100.00;98739.94;5137075;28;20059;-63
2023/08/25 10:25:31;;;;;;;4.85;2.00;;;;;;;26.34;100.00;98734.75;5136675;28;20317;-62
2023/08/25 10:27:58;;;;;;;9.88;4.28;;;;;;;26.23;100.00;98733.28;5137113;28;20104;-61
2023/08/25 10:30:25;;;;;;;4.03;1.70;;;;;;;26.60;100.00;98738.56;5136673;28;20085;-64
2023/08/25 10:32:55;;;;;;;5.15;2.00;;;;;;;27.02;100.00;98731.06;5136782;28;20146;-63
2023/08/25 10:35:42;;;;;;;4.72;2.80;;;;;;;26.97;100.00;98729.72;5136656;28;20408;-63
2023/08/25 10:38:35;;;;;;;3.85;1.80;;;;;;;26.23;100.00;98721.28;5136502;28;20439;-62
2023/08/25 10:41:14;;;;;;;1.90;1.65;;;;;;;25.62;100.00;98713.16;5136887;28;20138;-63
2023/08/25 10:43:44;;;;;;;4.63;1.85;;;;;;;26.15;100.00;98720.88;5138090;27;20105;-63
2023/08/25 10:46:10;;;;;;;8.05;2.22;;;;;;;26.81;100.00;98721.78;5140510;28;20126;-64
2023/08/25 10:48:37;;;;;;;7.63;1.85;;;;;;;27.18;100.00;98736.97;5140364;28;20138;-64
2023/08/25 10:51:08;;;;;;;6.90;1.52;;;;;;;27.00;99.29;98745.63;5140218;28;20138;-67
2023/08/25 10:53:36;;;;;;;6.80;2.00;;;;;;;26.67;100.00;98740.22;5140365;28;20047;-66
2023/08/25 10:56:14;;;;;;;5.65;2.08;;;;;;;25.69;100.00;98720.44;5139810;28;20416;-64
2023/08/25 10:58:40;;;;;;;6.72;2.20;;;;;;;25.70;100.00;98699.53;5139960;28;20062;-62
2023/08/25 11:01:06;;;;;;;5.32;1.90;;;;;;;25.52;100.00;98684.38;5139839;28;20062;-62
2023/08/25 11:03:45;;;;;;;4.72;2.05;;;;;;;25.11;100.00;98683.19;5140354;28;20078;-66
2023/08/25 11:06:42;;;;;;;3.95;1.77;;;;;;;25.38;100.00;98689.94;5139806;28;20062;-64
2023/08/25 11:09:09;;;;;;;2.92;1.80;;;;;;;24.63;100.00;98680.31;5139833;28;20047;-65
2023/08/25 11:11:37;;;;;;;9.55;2.13;;;;;;;25.23;100.00;98659.78;5140032;28;20055;-64
2023/08/25 11:14:03;;;;;;;2.67;1.90;;;;;;;25.33;100.00;98674.53;5139696;28;20076;-62
2023/08/25 11:16:29;;;;;;;15.20;2.40;;;;;;;25.28;100.00;98675.94;5139763;28;20111;-66
2023/08/25 11:18:56;;;;;;;5.47;1.90;;;;;;;25.35;100.00;98684.00;5139728;28;20111;-64
2023/08/25 11:21:25;;;;;;;5.72;2.05;;;;;;;25.42;100.00;98668.06;5139922;28;20053;-65
2023/08/25 11:23:54;;;;;;;8.50;2.30;;;;;;;25.52;100.00;98675.16;5139318;28;20076;-65
2023/08/25 11:26:21;;;;;;;3.90;1.58;;;;;;;25.42;100.00;98696.91;5140076;28;20111;-67